PWSweather.com
Personal Weather Stations
Station Observations

ChardChardGB

Lat: 50.877408, Lon: -2.94964741

Elevation: 341

Station Type: WS3083

http://www.merriott-astro.co.uk/weather/index.htm

High Low Average
Temperature 54.1°F12.3°C 34.9°F1.6°C 42.8°F6.0°C
Dew Point 51.7°F10.9°C 30.8°F-0.7°C 37.0°F2.8°C
Winds 26.6 mph 42.8 kmh 0.7 mph 1.1 kmh 6.0 mph SSW9.7 kmh SSW
Wind Gusts 26.6 mph42.8 kmh 2.2 mph3.5 kmh 8.0 mph12.9 kmh
Humidity 92% 70% 80%
Pressure 29.96 in1014.6 mb 29.69 in1005.4 mb -
Precipitation 1.26 in32.0 mm - -
Hour Temp Dew Point Humidity Winds Wind Gusts Pressure Precip Precip Rate Daily Precip Total
12:03 AM 51.4°F10.8°C 48.9°F9.4°C 91% 19.7 mph S31.7 kmh S 19.7 mph31.7 kmh 29.96 in1014.6 mb 0.05 in1.3 mm 1.00 in25.4 mm 0.05 in1.3 mm
12:33 AM 51.6°F10.9°C 49.1°F9.5°C 91% 22.1 mph SW35.6 kmh SW 22.1 mph35.6 kmh 29.94 in1013.9 mb 0.08 in2.0 mm 0.06 in1.5 mm 0.13 in3.3 mm
01:03 AM 51.8°F11.0°C 49.3°F9.6°C 91% 22.1 mph S35.6 kmh S 22.1 mph35.6 kmh 29.92 in1013.2 mb 0.13 in3.3 mm 0.10 in2.5 mm 0.26 in6.6 mm
01:33 AM 52.0°F11.1°C 49.4°F9.7°C 91% 13.0 mph S20.9 kmh S 13.0 mph20.9 kmh 29.90 in1012.5 mb 0.13 in3.3 mm 0.00 in0.0 mm 0.39 in9.9 mm
02:03 AM 52.2°F11.2°C 49.9°F9.9°C 92% 13.6 mph SSW21.9 kmh SSW 13.6 mph21.9 kmh 29.88 in1011.9 mb 0.07 in1.8 mm 0.00 in0.0 mm 0.46 in11.7 mm
02:33 AM 52.5°F11.4°C 50.3°F10.2°C 92% 20.6 mph E33.2 kmh E 20.6 mph33.2 kmh 29.86 in1011.2 mb 0.05 in1.3 mm 0.00 in0.0 mm 0.51 in13.0 mm
03:03 AM 52.9°F11.6°C 50.6°F10.3°C 92% 26.6 mph S42.8 kmh S 26.6 mph42.8 kmh 29.84 in1010.5 mb 0.08 in2.0 mm 0.06 in1.5 mm 0.59 in15.0 mm
03:33 AM 53.2°F11.8°C 51.0°F10.6°C 92% 21.3 mph SE34.3 kmh SE 21.3 mph34.3 kmh 29.81 in1009.5 mb 0.04 in1.0 mm 0.00 in0.0 mm 0.63 in16.0 mm
04:03 AM 53.6°F12.0°C 51.3°F10.7°C 92% 19.7 mph S31.7 kmh S 19.7 mph31.7 kmh 29.79 in1008.8 mb 0.02 in0.5 mm 0.00 in0.0 mm 0.65 in16.5 mm
04:33 AM 53.4°F11.9°C 51.2°F10.7°C 92% 21.3 mph E34.3 kmh E 21.3 mph34.3 kmh 29.76 in1007.8 mb 0.13 in3.3 mm 0.22 in5.6 mm 0.78 in19.8 mm
05:03 AM 53.6°F12.0°C 51.3°F10.7°C 92% 17.4 mph S28.0 kmh S 17.4 mph28.0 kmh 29.75 in1007.5 mb 0.09 in2.3 mm 0.00 in0.0 mm 0.87 in22.1 mm
05:33 AM 54.0°F12.2°C 51.7°F10.9°C 92% 15.2 mph N24.5 kmh N 15.2 mph24.5 kmh 29.72 in1006.4 mb 0.15 in3.8 mm 0.12 in3.0 mm 1.03 in26.2 mm
06:03 AM 54.1°F12.3°C 51.6°F10.9°C 91% 21.3 mph SE34.3 kmh SE 21.3 mph34.3 kmh 29.73 in1006.8 mb 0.06 in1.5 mm 0.00 in0.0 mm 1.09 in27.7 mm
06:33 AM 49.8°F9.9°C 44.2°F6.8°C 81% 9.8 mph WNW15.8 kmh WNW 9.8 mph15.8 kmh 29.80 in1009.1 mb 0.09 in2.3 mm 0.06 in1.5 mm 1.18 in30.0 mm
07:03 AM 48.2°F9.0°C 42.3°F5.7°C 80% 8.3 mph W13.4 kmh W 8.3 mph13.4 kmh 29.81 in1009.5 mb 0.04 in1.0 mm 0.00 in0.0 mm 1.22 in31.0 mm
07:33 AM 47.5°F8.6°C 40.6°F4.8°C 77% 5.4 mph SW8.7 kmh SW 5.4 mph8.7 kmh 29.84 in1010.5 mb 0.00 in0.0 mm 0.00 in0.0 mm 1.22 in31.0 mm
08:03 AM 47.3°F8.5°C 40.1°F4.5°C 76% 9.2 mph NNW14.8 kmh NNW 9.2 mph14.8 kmh 29.84 in1010.5 mb 0.00 in0.0 mm 0.00 in0.0 mm 1.22 in31.0 mm
08:33 AM 47.3°F8.5°C 39.4°F4.1°C 74% 8.3 mph WNW13.4 kmh WNW 8.3 mph13.4 kmh 29.86 in1011.2 mb 0.00 in0.0 mm 0.00 in0.0 mm 1.22 in31.0 mm
09:03 AM 46.9°F8.3°C 39.1°F3.9°C 74% 13.0 mph NNW20.9 kmh NNW 13.0 mph20.9 kmh 29.89 in1012.2 mb 0.00 in0.0 mm 0.00 in0.0 mm 1.22 in31.0 mm
09:33 AM 46.0°F7.8°C 37.5°F3.1°C 72% 5.4 mph WNW8.7 kmh WNW 5.4 mph8.7 kmh 29.89 in1012.2 mb 0.00 in0.0 mm 0.00 in0.0 mm 1.22 in31.0 mm
10:03 AM 45.7°F7.6°C 36.8°F2.7°C 71% 5.4 mph SSW8.7 kmh SSW 5.4 mph8.7 kmh 29.90 in1012.5 mb 0.00 in0.0 mm 0.00 in0.0 mm 1.22 in31.0 mm
10:33 AM 45.5°F7.5°C 36.6°F2.6°C 71% 5.4 mph N8.7 kmh N 5.4 mph8.7 kmh 29.90 in1012.5 mb 0.00 in0.0 mm 0.00 in0.0 mm 1.22 in31.0 mm
10:50 AM 43.3°F6.3°C 37.6°F3.1°C 80% 5.4 mph SSW8.7 kmh SSW 6.9 mph11.1 kmh 29.75 in1007.5 mb 0.05 in1.3 mm 0.18 in4.6 mm 1.26 in32.0 mm
11:00 AM 43.3°F6.3°C 37.9°F3.3°C 81% 7.6 mph SW12.2 kmh SW 13.0 mph20.9 kmh 29.74 in1007.1 mb 0.05 in1.3 mm 0.00 in0.0 mm 1.26 in32.0 mm
11:10 AM 43.5°F6.4°C 38.4°F3.6°C 82% 6.9 mph S11.1 kmh S 9.2 mph14.8 kmh 29.73 in1006.8 mb 0.05 in1.3 mm 0.00 in0.0 mm 1.26 in32.0 mm
11:30 AM 43.9°F6.6°C 38.1°F3.4°C 80% 7.5 mph SSW12.1 kmh SSW 10.7 mph17.2 kmh 29.71 in1006.1 mb 0.05 in1.3 mm 0.00 in0.0 mm 1.26 in32.0 mm
11:40 AM 45.0°F7.2°C 39.2°F4.0°C 80% 5.1 mph SW8.2 kmh SW 6.0 mph9.7 kmh 29.71 in1006.1 mb 0.01 in0.3 mm 0.00 in0.0 mm 1.26 in32.0 mm
11:50 AM 45.1°F7.3°C 38.7°F3.7°C 78% 6.0 mph SW9.7 kmh SW 8.3 mph13.4 kmh 29.72 in1006.4 mb 0.00 in0.0 mm 0.00 in0.0 mm 1.26 in32.0 mm
12:00 PM 45.5°F7.5°C 37.0°F2.8°C 72% 8.4 mph SW13.5 kmh SW 14.5 mph23.3 kmh 29.71 in1006.1 mb 0.00 in0.0 mm 0.00 in0.0 mm 1.26 in32.0 mm
12:10 PM 45.7°F7.6°C 36.8°F2.7°C 71% 8.4 mph SW13.5 kmh SW 13.0 mph20.9 kmh 29.71 in1006.1 mb 0.00 in0.0 mm 0.00 in0.0 mm 1.26 in32.0 mm
12:20 PM 46.0°F7.8°C 37.2°F2.9°C 71% 5.5 mph SSW8.9 kmh SSW 7.6 mph12.2 kmh 29.71 in1006.1 mb 0.00 in0.0 mm 0.00 in0.0 mm 1.26 in32.0 mm
12:30 PM 46.4°F8.0°C 37.5°F3.1°C 71% 6.0 mph S9.7 kmh S 9.2 mph14.8 kmh 29.71 in1006.1 mb 0.00 in0.0 mm 0.00 in0.0 mm 1.26 in32.0 mm
12:40 PM 45.5°F7.5°C 36.7°F2.6°C 71% 7.2 mph WSW11.6 kmh WSW 12.1 mph19.5 kmh 29.70 in1005.8 mb 0.00 in0.0 mm 0.00 in0.0 mm 1.26 in32.0 mm
12:50 PM 45.3°F7.4°C 37.9°F3.3°C 75% 5.4 mph WSW8.7 kmh WSW 7.6 mph12.2 kmh 29.70 in1005.8 mb 0.00 in0.0 mm 0.00 in0.0 mm 1.26 in32.0 mm
01:00 PM 45.1°F7.3°C 37.7°F3.2°C 75% 5.9 mph W9.5 kmh W 7.6 mph12.2 kmh 29.70 in1005.8 mb 0.00 in0.0 mm 0.00 in0.0 mm 1.26 in32.0 mm
01:10 PM 45.0°F7.2°C 37.5°F3.1°C 75% 6.4 mph SW10.3 kmh SW 9.2 mph14.8 kmh 29.70 in1005.8 mb 0.00 in0.0 mm 0.00 in0.0 mm 1.26 in32.0 mm
01:20 PM 45.7°F7.6°C 36.5°F2.5°C 70% 5.6 mph SSW9.0 kmh SSW 8.3 mph13.4 kmh 29.70 in1005.8 mb 0.00 in0.0 mm 0.00 in0.0 mm 1.26 in32.0 mm
01:30 PM 45.3°F7.4°C 37.2°F2.9°C 73% 7.5 mph SW12.1 kmh SW 11.4 mph18.3 kmh 29.70 in1005.8 mb 0.00 in0.0 mm 0.00 in0.0 mm 1.26 in32.0 mm
01:40 PM 45.1°F7.3°C 37.4°F3.0°C 74% 6.0 mph WSW9.7 kmh WSW 8.3 mph13.4 kmh 29.70 in1005.8 mb 0.00 in0.0 mm 0.00 in0.0 mm 1.26 in32.0 mm
01:50 PM 45.1°F7.3°C 37.4°F3.0°C 74% 5.5 mph SW8.9 kmh SW 12.1 mph19.5 kmh 29.70 in1005.8 mb 0.00 in0.0 mm 0.00 in0.0 mm 1.26 in32.0 mm
02:00 PM 45.1°F7.3°C 37.4°F3.0°C 74% 5.0 mph WSW8.0 kmh WSW 9.8 mph15.8 kmh 29.70 in1005.8 mb 0.00 in0.0 mm 0.00 in0.0 mm 1.26 in32.0 mm
02:10 PM 45.1°F7.3°C 37.0°F2.8°C 73% 5.5 mph WNW8.9 kmh WNW 6.9 mph11.1 kmh 29.69 in1005.4 mb 0.00 in0.0 mm 0.00 in0.0 mm 1.26 in32.0 mm
02:20 PM 44.8°F7.1°C 36.7°F2.6°C 73% 7.1 mph SW11.4 kmh SW 12.1 mph19.5 kmh 29.70 in1005.8 mb 0.00 in0.0 mm 0.00 in0.0 mm 1.26 in32.0 mm
02:30 PM 44.6°F7.0°C 36.5°F2.5°C 73% 5.8 mph WSW9.3 kmh WSW 9.2 mph14.8 kmh 29.69 in1005.4 mb 0.00 in0.0 mm 0.00 in0.0 mm 1.26 in32.0 mm
02:40 PM 44.4°F6.9°C 36.7°F2.6°C 74% 5.6 mph WSW9.0 kmh WSW 9.8 mph15.8 kmh 29.70 in1005.8 mb 0.00 in0.0 mm 0.00 in0.0 mm 1.26 in32.0 mm
02:50 PM 44.2°F6.8°C 36.5°F2.5°C 74% 5.1 mph WNW8.2 kmh WNW 6.9 mph11.1 kmh 29.70 in1005.8 mb 0.00 in0.0 mm 0.00 in0.0 mm 1.26 in32.0 mm
03:00 PM 44.1°F6.7°C 36.3°F2.4°C 74% 4.9 mph SW7.9 kmh SW 8.3 mph13.4 kmh 29.70 in1005.8 mb 0.00 in0.0 mm 0.00 in0.0 mm 1.26 in32.0 mm
03:10 PM 43.9°F6.6°C 36.5°F2.5°C 75% 3.8 mph WSW6.1 kmh WSW 6.9 mph11.1 kmh 29.71 in1006.1 mb 0.00 in0.0 mm 0.00 in0.0 mm 1.26 in32.0 mm
03:20 PM 43.9°F6.6°C 36.5°F2.5°C 75% 4.3 mph W6.9 kmh W 6.9 mph11.1 kmh 29.71 in1006.1 mb 0.00 in0.0 mm 0.00 in0.0 mm 1.26 in32.0 mm
03:30 PM 43.7°F6.5°C 36.3°F2.4°C 75% 3.8 mph W6.1 kmh W 7.6 mph12.2 kmh 29.71 in1006.1 mb 0.00 in0.0 mm 0.00 in0.0 mm 1.26 in32.0 mm
03:40 PM 43.0°F6.1°C 35.6°F2.0°C 75% 7.9 mph NW12.7 kmh NW 13.0 mph20.9 kmh 29.71 in1006.1 mb 0.00 in0.0 mm 0.00 in0.0 mm 1.26 in32.0 mm
03:50 PM 42.4°F5.8°C 35.1°F1.7°C 75% 6.6 mph W10.6 kmh W 9.8 mph15.8 kmh 29.72 in1006.4 mb 0.00 in0.0 mm 0.00 in0.0 mm 1.26 in32.0 mm
04:00 PM 41.9°F5.5°C 34.6°F1.4°C 75% 6.2 mph NW10.0 kmh NW 9.2 mph14.8 kmh 29.72 in1006.4 mb 0.00 in0.0 mm 0.00 in0.0 mm 1.26 in32.0 mm
04:10 PM 41.5°F5.3°C 34.9°F1.6°C 77% 5.9 mph WNW9.5 kmh WNW 7.6 mph12.2 kmh 29.73 in1006.8 mb 0.00 in0.0 mm 0.00 in0.0 mm 1.26 in32.0 mm
04:20 PM 41.4°F5.2°C 35.0°F1.7°C 78% 4.9 mph NW7.9 kmh NW 6.0 mph9.7 kmh 29.73 in1006.8 mb 0.00 in0.0 mm 0.00 in0.0 mm 1.26 in32.0 mm
04:30 PM 41.2°F5.1°C 35.2°F1.8°C 79% 3.7 mph NW6.0 kmh NW 6.0 mph9.7 kmh 29.74 in1007.1 mb 0.00 in0.0 mm 0.00 in0.0 mm 1.26 in32.0 mm
04:40 PM 41.0°F5.0°C 35.0°F1.7°C 79% 4.1 mph WNW6.6 kmh WNW 7.6 mph12.2 kmh 29.75 in1007.5 mb 0.00 in0.0 mm 0.00 in0.0 mm 1.26 in32.0 mm
04:50 PM 40.5°F4.7°C 34.8°F1.6°C 80% 2.1 mph SW3.4 kmh SW 3.1 mph5.0 kmh 29.74 in1007.1 mb 0.00 in0.0 mm 0.00 in0.0 mm 1.26 in32.0 mm
05:20 PM 39.4°F4.1°C 34.0°F1.1°C 81% 2.2 mph S3.5 kmh S 3.1 mph5.0 kmh 29.75 in1007.5 mb 0.00 in0.0 mm 0.00 in0.0 mm 1.26 in32.0 mm
05:30 PM 39.4°F4.1°C 34.0°F1.1°C 81% 2.2 mph SW3.5 kmh SW 3.1 mph5.0 kmh 29.76 in1007.8 mb 0.00 in0.0 mm 0.00 in0.0 mm 1.26 in32.0 mm
05:40 PM 39.0°F3.9°C 33.7°F0.9°C 81% 1.7 mph S2.7 kmh S 3.1 mph5.0 kmh 29.76 in1007.8 mb 0.00 in0.0 mm 0.00 in0.0 mm 1.26 in32.0 mm
05:50 PM 39.2°F4.0°C 33.9°F1.1°C 81% 2.4 mph SW3.9 kmh SW 3.8 mph6.1 kmh 29.76 in1007.8 mb 0.00 in0.0 mm 0.00 in0.0 mm 1.26 in32.0 mm
06:00 PM 39.0°F3.9°C 33.7°F0.9°C 81% 1.8 mph SW2.9 kmh SW 2.2 mph3.5 kmh 29.76 in1007.8 mb 0.00 in0.0 mm 0.00 in0.0 mm 1.26 in32.0 mm
06:10 PM 39.0°F3.9°C 33.7°F0.9°C 81% 2.1 mph SSW3.4 kmh SSW 3.1 mph5.0 kmh 29.76 in1007.8 mb 0.00 in0.0 mm 0.00 in0.0 mm 1.26 in32.0 mm
06:20 PM 39.0°F3.9°C 33.7°F0.9°C 81% 2.7 mph SSW4.3 kmh SSW 3.8 mph6.1 kmh 29.77 in1008.1 mb 0.00 in0.0 mm 0.00 in0.0 mm 1.26 in32.0 mm
06:30 PM 38.8°F3.8°C 33.5°F0.8°C 81% 1.3 mph SSW2.1 kmh SSW 3.1 mph5.0 kmh 29.77 in1008.1 mb 0.00 in0.0 mm 0.00 in0.0 mm 1.26 in32.0 mm
06:40 PM 38.5°F3.6°C 33.2°F0.7°C 81% 1.2 mph S1.9 kmh S 3.1 mph5.0 kmh 29.77 in1008.1 mb 0.00 in0.0 mm 0.00 in0.0 mm 1.26 in32.0 mm
06:50 PM 38.5°F3.6°C 33.2°F0.7°C 81% 1.7 mph S2.7 kmh S 3.1 mph5.0 kmh 29.78 in1008.5 mb 0.00 in0.0 mm 0.00 in0.0 mm 1.26 in32.0 mm
07:00 PM 38.7°F3.7°C 33.3°F0.7°C 81% 3.4 mph SSW5.5 kmh SSW 4.5 mph7.2 kmh 29.78 in1008.5 mb 0.00 in0.0 mm 0.00 in0.0 mm 1.26 in32.0 mm
07:10 PM 38.5°F3.6°C 33.2°F0.7°C 81% 2.4 mph SSW3.9 kmh SSW 3.1 mph5.0 kmh 29.78 in1008.5 mb 0.00 in0.0 mm 0.00 in0.0 mm 1.26 in32.0 mm
07:20 PM 38.3°F3.5°C 33.0°F0.6°C 81% 2.2 mph SSW3.5 kmh SSW 3.1 mph5.0 kmh 29.78 in1008.5 mb 0.00 in0.0 mm 0.00 in0.0 mm 1.26 in32.0 mm
07:30 PM 38.3°F3.5°C 33.0°F0.6°C 81% 1.9 mph WSW3.1 kmh WSW 3.8 mph6.1 kmh 29.78 in1008.5 mb 0.00 in0.0 mm 0.00 in0.0 mm 1.26 in32.0 mm
07:40 PM 38.5°F3.6°C 33.2°F0.7°C 81% 2.1 mph SW3.4 kmh SW 3.1 mph5.0 kmh 29.78 in1008.5 mb 0.00 in0.0 mm 0.00 in0.0 mm 1.26 in32.0 mm
07:50 PM 38.5°F3.6°C 32.9°F0.5°C 80% 2.3 mph SW3.7 kmh SW 3.1 mph5.0 kmh 29.78 in1008.5 mb 0.00 in0.0 mm 0.00 in0.0 mm 1.26 in32.0 mm
08:00 PM 38.7°F3.7°C 33.0°F0.6°C 80% 3.1 mph WSW5.0 kmh WSW 5.4 mph8.7 kmh 29.79 in1008.8 mb 0.00 in0.0 mm 0.00 in0.0 mm 1.26 in32.0 mm
08:10 PM 38.8°F3.8°C 33.2°F0.7°C 80% 2.8 mph SSW4.5 kmh SSW 5.4 mph8.7 kmh 29.79 in1008.8 mb 0.00 in0.0 mm 0.00 in0.0 mm 1.26 in32.0 mm
08:20 PM 38.8°F3.8°C 33.2°F0.7°C 80% 3.0 mph SSW4.8 kmh SSW 6.0 mph9.7 kmh 29.79 in1008.8 mb 0.00 in0.0 mm 0.00 in0.0 mm 1.26 in32.0 mm
08:30 PM 38.7°F3.7°C 33.0°F0.6°C 80% 2.1 mph S3.4 kmh S 3.1 mph5.0 kmh 29.79 in1008.8 mb 0.00 in0.0 mm 0.00 in0.0 mm 1.26 in32.0 mm
08:40 PM 37.8°F3.2°C 32.2°F0.1°C 80% 1.4 mph S2.3 kmh S 3.1 mph5.0 kmh 29.79 in1008.8 mb 0.00 in0.0 mm 0.00 in0.0 mm 1.26 in32.0 mm
08:50 PM 37.2°F2.9°C 31.6°F-0.2°C 80% 2.5 mph S4.0 kmh S 4.5 mph7.2 kmh 29.79 in1008.8 mb 0.00 in0.0 mm 0.00 in0.0 mm 1.26 in32.0 mm
09:00 PM 36.5°F2.5°C 31.2°F-0.4°C 81% 0.7 mph S1.1 kmh S 2.2 mph3.5 kmh 29.79 in1008.8 mb 0.00 in0.0 mm 0.00 in0.0 mm 1.26 in32.0 mm
09:10 PM 36.7°F2.6°C 31.4°F-0.3°C 81% 1.7 mph S2.7 kmh S 3.1 mph5.0 kmh 29.79 in1008.8 mb 0.00 in0.0 mm 0.00 in0.0 mm 1.26 in32.0 mm
09:20 PM 36.1°F2.3°C 30.9°F-0.6°C 81% 1.8 mph E2.9 kmh E 3.1 mph5.0 kmh 29.80 in1009.1 mb 0.00 in0.0 mm 0.00 in0.0 mm 1.26 in32.0 mm
09:30 PM 36.0°F2.2°C 31.0°F-0.6°C 82% 1.8 mph ESE2.9 kmh ESE 2.2 mph3.5 kmh 29.80 in1009.1 mb 0.00 in0.0 mm 0.00 in0.0 mm 1.26 in32.0 mm
09:40 PM 36.1°F2.3°C 31.5°F-0.3°C 83% 3.1 mph E5.0 kmh E 4.5 mph7.2 kmh 29.79 in1008.8 mb 0.00 in0.0 mm 0.00 in0.0 mm 1.26 in32.0 mm
09:50 PM 36.1°F2.3°C 31.5°F-0.3°C 83% 2.6 mph SE4.2 kmh SE 3.1 mph5.0 kmh 29.79 in1008.8 mb 0.00 in0.0 mm 0.00 in0.0 mm 1.26 in32.0 mm
10:00 PM 36.1°F2.3°C 31.5°F-0.3°C 83% 2.8 mph ESE4.5 kmh ESE 4.5 mph7.2 kmh 29.79 in1008.8 mb 0.00 in0.0 mm 0.00 in0.0 mm 1.26 in32.0 mm
10:10 PM 36.3°F2.4°C 32.0°F0.0°C 84% 2.8 mph SSE4.5 kmh SSE 4.5 mph7.2 kmh 29.80 in1009.1 mb 0.00 in0.0 mm 0.00 in0.0 mm 1.26 in32.0 mm
10:20 PM 36.3°F2.4°C 32.0°F0.0°C 84% 2.8 mph S4.5 kmh S 3.8 mph6.1 kmh 29.78 in1008.5 mb 0.00 in0.0 mm 0.00 in0.0 mm 1.26 in32.0 mm
10:30 PM 36.0°F2.2°C 31.6°F-0.2°C 84% 2.6 mph S4.2 kmh S 4.5 mph7.2 kmh 29.79 in1008.8 mb 0.00 in0.0 mm 0.00 in0.0 mm 1.26 in32.0 mm
10:40 PM 35.8°F2.1°C 31.4°F-0.3°C 84% 2.5 mph E4.0 kmh E 4.5 mph7.2 kmh 29.79 in1008.8 mb 0.00 in0.0 mm 0.00 in0.0 mm 1.26 in32.0 mm
10:50 PM 35.4°F1.9°C 31.1°F-0.5°C 84% 2.9 mph SSW4.7 kmh SSW 3.8 mph6.1 kmh 29.79 in1008.8 mb 0.00 in0.0 mm 0.00 in0.0 mm 1.26 in32.0 mm
11:00 PM 35.6°F2.0°C 31.3°F-0.4°C 84% 2.7 mph S4.3 kmh S 3.8 mph6.1 kmh 29.79 in1008.8 mb 0.00 in0.0 mm 0.00 in0.0 mm 1.26 in32.0 mm
11:10 PM 35.2°F1.8°C 31.2°F-0.4°C 85% 1.8 mph S2.9 kmh S 3.1 mph5.0 kmh 29.79 in1008.8 mb 0.00 in0.0 mm 0.00 in0.0 mm 1.26 in32.0 mm
11:20 PM 35.1°F1.7°C 31.0°F-0.6°C 85% 1.1 mph S1.8 kmh S 2.2 mph3.5 kmh 29.78 in1008.5 mb 0.00 in0.0 mm 0.00 in0.0 mm 1.26 in32.0 mm
11:30 PM 35.1°F1.7°C 31.0°F-0.6°C 85% 1.5 mph ESE2.4 kmh ESE 2.2 mph3.5 kmh 29.78 in1008.5 mb 0.00 in0.0 mm 0.00 in0.0 mm 1.26 in32.0 mm
11:40 PM 35.1°F1.7°C 31.0°F-0.6°C 85% 1.6 mph S2.6 kmh S 2.2 mph3.5 kmh 29.78 in1008.5 mb 0.00 in0.0 mm 0.00 in0.0 mm 1.26 in32.0 mm
11:50 PM 34.9°F1.6°C 30.8°F-0.7°C 85% 1.7 mph SSE2.7 kmh SSE 3.1 mph5.0 kmh 29.77 in1008.1 mb 0.00 in0.0 mm 0.00 in0.0 mm 1.26 in32.0 mm